sensor_id;sensor_type;location;lat;lon;timestamp;pressure;altitude;pressure_sealevel;temperature;humidity
70943;BME280;59154;51.970;5.650;2022-08-19T00:00:06;101400;;;19.31998;90.6
70943;BME280;59154;51.970;5.650;2022-08-19T00:05:04;101400;;;19.24878;90.9
70943;BME280;59154;51.970;5.650;2022-08-19T00:10:04;101400;;;19.21826;91.0
70943;BME280;59154;51.970;5.650;2022-08-19T00:15:03;101400;;;19.19792;91.2
70943;BME280;59154;51.970;5.650;2022-08-19T00:20:03;101400;;;19.15723;90.9
70943;BME280;59154;51.970;5.650;2022-08-19T00:25:03;101400;;;19.08602;91.2
70943;BME280;59154;51.970;5.650;2022-08-19T00:30:05;101400;;;18.97921;92.2
70943;BME280;59154;51.970;5.650;2022-08-19T00:35:03;101400;;;19.00465;92.4
70943;BME280;59154;51.970;5.650;2022-08-19T00:40:05;101400;;;18.9487;93.2
70943;BME280;59154;51.970;5.650;2022-08-19T00:45:10;101400;;;18.79103;93.8
70943;BME280;59154;51.970;5.650;2022-08-19T00:50:04;101400;;;18.75543;94.3
70943;BME280;59154;51.970;5.650;2022-08-19T00:55:05;101400;;;18.70965;94.2
70943;BME280;59154;51.970;5.650;2022-08-19T01:00:06;101400;;;18.65371;94.4
70943;BME280;59154;51.970;5.650;2022-08-19T01:05:06;101400;;;18.54181;94.5
70943;BME280;59154;51.970;5.650;2022-08-19T01:10:04;101400;;;18.48078;94.9
70943;BME280;59154;51.970;5.650;2022-08-19T01:15:03;101400;;;18.48078;94.9
70943;BME280;59154;51.970;5.650;2022-08-19T01:20:04;101400;;;18.42483;95.2
70943;BME280;59154;51.970;5.650;2022-08-19T01:25:02;101400;;;18.3282;95.9
70943;BME280;59154;51.970;5.650;2022-08-19T01:30:03;101400;;;18.3638;95.4
70943;BME280;59154;51.970;5.650;2022-08-19T01:35:04;101400;;;18.34854;94.9
70943;BME280;59154;51.970;5.650;2022-08-19T01:40:04;101400;;;18.31294;95.0
70943;BME280;59154;51.970;5.650;2022-08-19T01:45:03;101400;;;18.13493;96.7
70943;BME280;59154;51.970;5.650;2022-08-19T01:50:05;101400;;;18.10441;97.0
70943;BME280;59154;51.970;5.650;2022-08-19T01:55:04;101400;;;18.06881;96.8
70943;BME280;59154;51.970;5.650;2022-08-19T02:00:07;101400;;;18.03321;96.7
70943;BME280;59154;51.970;5.650;2022-08-19T02:05:06;101400;;;18.00269;95.9
70943;BME280;59154;51.970;5.650;2022-08-19T02:10:04;101400;;;17.94675;96.3
70943;BME280;59154;51.970;5.650;2022-08-19T02:15:04;101400;;;17.93149;96.2
70943;BME280;59154;51.970;5.650;2022-08-19T02:20:04;101400;;;17.91114;96.1
70943;BME280;59154;51.970;5.650;2022-08-19T02:25:03;101400;;;17.88063;95.6
70943;BME280;59154;51.970;5.650;2022-08-19T02:30:05;101400;;;17.86028;95.5
70943;BME280;59154;51.970;5.650;2022-08-19T02:35:02;101400;;;17.82468;95.4
70943;BME280;59154;51.970;5.650;2022-08-19T02:40:04;101400;;;17.78908;95.4
70943;BME280;59154;51.970;5.650;2022-08-19T02:45:03;101400;;;17.7077;95.1
70943;BME280;59154;51.970;5.650;2022-08-19T02:50:04;101400;;;17.66193;95.5
70943;BME280;59154;51.970;5.650;2022-08-19T02:55:03;101400;;;17.59581;95.9
70943;BME280;59154;51.970;5.650;2022-08-19T03:00:05;101400;;;17.55512;96.5
70943;BME280;59154;51.970;5.650;2022-08-19T03:05:03;101400;;;17.4534;97.7
70943;BME280;59154;51.970;5.650;2022-08-19T03:10:03;101400;;;17.43306;97.4
70943;BME280;59154;51.970;5.650;2022-08-19T03:15:04;101400;;;17.39746;97.2
70943;BME280;59154;51.970;5.650;2022-08-19T03:20:04;101400;;;17.36186;97.2
70943;BME280;59154;51.970;5.650;2022-08-19T03:25:03;101400;;;17.28048;96.6
70943;BME280;59154;51.970;5.650;2022-08-19T03:30:03;101400;;;17.22962;97.1
70943;BME280;59154;51.970;5.650;2022-08-19T03:35:02;101400;;;17.19911;97.3
70943;BME280;59154;51.970;5.650;2022-08-19T03:40:04;101400;;;17.20419;97.1
70943;BME280;59154;51.970;5.650;2022-08-19T03:45:03;101400;;;17.21945;97.0
70943;BME280;59154;51.970;5.650;2022-08-19T03:50:04;101400;;;17.14825;96.8
70943;BME280;59154;51.970;5.650;2022-08-19T03:55:03;101400;;;17.10247;97.5
70943;BME280;59154;51.970;5.650;2022-08-19T04:00:04;101400;;;17.06687;98.0
70943;BME280;59154;51.970;5.650;2022-08-19T04:05:03;101400;;;16.97532;99.4
70943;BME280;59154;51.970;5.650;2022-08-19T04:10:03;101400;;;17.00584;98.9
70943;BME280;59154;51.970;5.650;2022-08-19T04:15:03;101400;;;16.97024;98.9
70943;BME280;59154;51.970;5.650;2022-08-19T04:20:04;101400;;;16.99567;98.5
70943;BME280;59154;51.970;5.650;2022-08-19T04:25:03;101400;;;16.93972;98.3
70943;BME280;59154;51.970;5.650;2022-08-19T04:30:04;101400;;;16.88378;99.0
70943;BME280;59154;51.970;5.650;2022-08-19T04:35:03;101400;;;16.90412;99.0
70943;BME280;59154;51.970;5.650;2022-08-19T04:40:05;101400;;;16.92446;98.7
70943;BME280;59154;51.970;5.650;2022-08-19T04:45:02;101400;;;16.90921;98.2
70943;BME280;59154;51.970;5.650;2022-08-19T04:50:03;101400;;;16.89395;97.7
70943;BME280;59154;51.970;5.650;2022-08-19T04:55:04;101400;;;16.91429;97.7
70943;BME280;59154;51.970;5.650;2022-08-19T05:00:04;101400;;;16.91429;97.6
70943;BME280;59154;51.970;5.650;2022-08-19T05:05:03;101400;;;16.93972;98.0
70943;BME280;59154;51.970;5.650;2022-08-19T05:10:04;101400;;;16.95498;98.5
70943;BME280;59154;51.970;5.650;2022-08-19T05:15:04;101400;;;16.98041;98.5
70943;BME280;59154;51.970;5.650;2022-08-19T05:20:04;101400;;;17.0211;98.2
70943;BME280;59154;51.970;5.650;2022-08-19T05:25:05;101400;;;17.11773;101.2
70943;BME280;59154;51.970;5.650;2022-08-19T05:30:03;101400;;;17.24997;101.6
70943;BME280;59154;51.970;5.650;2022-08-19T05:35:03;101400;;;17.35677;101.2
70943;BME280;59154;51.970;5.650;2022-08-19T05:40:03;101400;;;17.44323;100.9
70943;BME280;59154;51.970;5.650;2022-08-19T05:45:04;101400;;;17.61107;100.5
70943;BME280;59154;51.970;5.650;2022-08-19T05:50:04;101400;;;17.7077;101.3
70943;BME280;59154;51.970;5.650;2022-08-19T05:55:03;101400;;;17.87046;100.8
70943;BME280;59154;51.970;5.650;2022-08-19T06:00:06;101400;;;17.95183;100.6
70943;BME280;59154;51.970;5.650;2022-08-19T06:05:04;101400;;;18.15527;100.6
70943;BME280;59154;51.970;5.650;2022-08-19T06:10:03;101400;;;18.23156;100.2
70943;BME280;59154;51.970;5.650;2022-08-19T06:15:05;101400;;;18.35872;100.1
70943;BME280;59154;51.970;5.650;2022-08-19T06:20:04;101400;;;18.37397;100.5
70943;BME280;59154;51.970;5.650;2022-08-19T06:25:03;101400;;;18.56216;100.1
70943;BME280;59154;51.970;5.650;2022-08-19T06:30:04;101400;;;18.67914;99.6
70943;BME280;59154;51.970;5.650;2022-08-19T06:35:02;101400;;;18.70965;99.5
70943;BME280;59154;51.970;5.650;2022-08-19T06:40:04;101400;;;18.79612;99.3
70943;BME280;59154;51.970;5.650;2022-08-19T06:45:02;101400;;;19.03008;98.0
70943;BME280;59154;51.970;5.650;2022-08-19T06:50:03;101400;;;18.95887;98.2
70943;BME280;59154;51.970;5.650;2022-08-19T06:55:03;101400;;;18.95887;98.3
70943;BME280;59154;51.970;5.650;2022-08-19T07:00:04;101400;;;18.91818;97.8
70943;BME280;59154;51.970;5.650;2022-08-19T07:05:04;101400;;;18.9843;97.2
70943;BME280;59154;51.970;5.650;2022-08-19T07:10:04;101400;;;19.07076;97.2
70943;BME280;59154;51.970;5.650;2022-08-19T07:15:03;101400;;;19.15214;96.8
70943;BME280;59154;51.970;5.650;2022-08-19T07:20:04;101400;;;19.23861;96.2
70943;BME280;59154;51.970;5.650;2022-08-19T07:25:03;101400;;;19.40645;95.8
70943;BME280;59154;51.970;5.650;2022-08-19T07:30:03;101400;;;19.498;94.9
70943;BME280;59154;51.970;5.650;2022-08-19T07:35:03;101400;;;19.64549;94.1
70943;BME280;59154;51.970;5.650;2022-08-19T07:40:05;101400;;;19.7523;93.5
70943;BME280;59154;51.970;5.650;2022-08-19T07:45:04;101400;;;20.07273;91.3
70943;BME280;59154;51.970;5.650;2022-08-19T07:50:05;101400;;;20.21514;90.1
70943;BME280;59154;51.970;5.650;2022-08-19T07:55:03;101400;;;20.4491;88.8
70943;BME280;59154;51.970;5.650;2022-08-19T08:00:05;101400;;;20.47453;88.3
70943;BME280;59154;51.970;5.650;2022-08-19T08:05:03;101400;;;20.5254;87.9
70943;BME280;59154;51.970;5.650;2022-08-19T08:10:05;101500;;;20.4135;87.1
70943;BME280;59154;51.970;5.650;2022-08-19T08:15:07;101500;;;20.46945;87.2
70943;BME280;59154;51.970;5.650;2022-08-19T08:20:05;101500;;;20.39824;86.6
70943;BME280;59154;51.970;5.650;2022-08-19T08:25:04;101500;;;20.65764;86.7
70943;BME280;59154;51.970;5.650;2022-08-19T08:30:04;101500;;;20.96281;85.6
70943;BME280;59154;51.970;5.650;2022-08-19T08:35:04;101500;;;21.28832;84.5
70943;BME280;59154;51.970;5.650;2022-08-19T08:40:05;101500;;;21.20186;84.1
70943;BME280;59154;51.970;5.650;2022-08-19T08:45:05;101500;;;21.31884;83.1
70943;BME280;59154;51.970;5.650;2022-08-19T08:50:07;101500;;;21.23238;83.6
70943;BME280;59154;51.970;5.650;2022-08-19T08:55:06;101500;;;21.39513;82.2
70943;BME280;59154;51.970;5.650;2022-08-19T09:00:08;101500;;;21.57824;80.9
70943;BME280;59154;51.970;5.650;2022-08-19T09:05:03;101500;;;22.15807;78.5
70943;BME280;59154;51.970;5.650;2022-08-19T09:10:09;101500;;;22.00548;77.4
70943;BME280;59154;51.970;5.650;2022-08-19T09:15:06;101500;;;22.52937;76.3
70943;BME280;59154;51.970;5.650;2022-08-19T09:20:06;101500;;;22.4429;75.7
70943;BME280;59154;51.970;5.650;2022-08-19T09:25:04;101500;;;22.20385;76.6
70943;BME280;59154;51.970;5.650;2022-08-19T09:30:04;101500;;;21.99531;77.0
70943;BME280;59154;51.970;5.650;2022-08-19T09:35:03;101500;;;21.95971;77.1
70943;BME280;59154;51.970;5.650;2022-08-19T09:40:04;101500;;;21.93936;77.4
70943;BME280;59154;51.970;5.650;2022-08-19T09:45:04;101500;;;22.06143;77.5
70943;BME280;59154;51.970;5.650;2022-08-19T09:50:04;101500;;;22.28014;76.8
70943;BME280;59154;51.970;5.650;2022-08-19T09:55:03;101500;;;22.30557;77.2
70943;BME280;59154;51.970;5.650;2022-08-19T10:00:05;101500;;;22.52428;76.8
70943;BME280;59154;51.970;5.650;2022-08-19T10:05:02;101500;;;22.68196;75.7
70943;BME280;59154;51.970;5.650;2022-08-19T10:10:04;101500;;;22.75825;75.7
70943;BME280;59154;51.970;5.650;2022-08-19T10:15:02;101500;;;22.92101;75.0
70943;BME280;59154;51.970;5.650;2022-08-19T10:20:04;101500;;;23.24654;73.2
70943;BME280;59154;51.970;5.650;2022-08-19T10:25:05;101500;;;23.46016;73.3
70943;BME280;59154;51.970;5.650;2022-08-19T10:30:04;101500;;;23.57206;73.1
70943;BME280;59154;51.970;5.650;2022-08-19T10:35:03;101500;;;23.56698;73.0
70943;BME280;59154;51.970;5.650;2022-08-19T10:40:05;101500;;;23.6687;72.5
70943;BME280;59154;51.970;5.650;2022-08-19T10:45:04;101500;;;23.99932;71.4
70943;BME280;59154;51.970;5.650;2022-08-19T10:50:03;101500;;;24.06544;71.6
70943;BME280;59154;51.970;5.650;2022-08-19T10:55:05;101500;;;24.15699;71.5
70943;BME280;59154;51.970;5.650;2022-08-19T11:00:04;101500;;;24.30958;69.6
70943;BME280;59154;51.970;5.650;2022-08-19T11:05:02;101500;;;24.18751;70.5
70943;BME280;59154;51.970;5.650;2022-08-19T11:10:03;101500;;;24.3045;70.5
70943;BME280;59154;51.970;5.650;2022-08-19T11:15:02;101500;;;24.07561;70.9
70943;BME280;59154;51.970;5.650;2022-08-19T11:20:03;101500;;;24.10613;70.9
70943;BME280;59154;51.970;5.650;2022-08-19T11:25:03;101500;;;24.61985;69.4
70943;BME280;59154;51.970;5.650;2022-08-19T11:30:04;101500;;;24.74701;69.3
70943;BME280;59154;51.970;5.650;2022-08-19T11:35:03;101500;;;25.00642;68.6
70943;BME280;59154;51.970;5.650;2022-08-19T11:40:04;101500;;;24.93521;68.1
70943;BME280;59154;51.970;5.650;2022-08-19T11:45:02;101500;;;25.26583;68.8
70943;BME280;59154;51.970;5.650;2022-08-19T11:50:03;101500;;;25.52015;67.7
70943;BME280;59154;51.970;5.650;2022-08-19T11:55:03;101500;;;25.41842;68.1
70943;BME280;59154;51.970;5.650;2022-08-19T12:00:04;101400;;;25.5405;67.9
70943;BME280;59154;51.970;5.650;2022-08-19T12:05:03;101500;;;25.61171;68.1
70943;BME280;59154;51.970;5.650;2022-08-19T12:10:03;101400;;;25.49981;67.5
70943;BME280;59154;51.970;5.650;2022-08-19T12:15:03;101500;;;25.61171;67.5
70943;BME280;59154;51.970;5.650;2022-08-19T12:20:04;101400;;;25.7287;67.1
70943;BME280;59154;51.970;5.650;2022-08-19T12:25:04;101500;;;25.62188;66.7
70943;BME280;59154;51.970;5.650;2022-08-19T12:30:04;101500;;;25.58119;66.8
70943;BME280;59154;51.970;5.650;2022-08-19T12:35:03;101500;;;25.9169;67.1
70943;BME280;59154;51.970;5.650;2022-08-19T12:40:04;101500;;;25.8762;66.5
70943;BME280;59154;51.970;5.650;2022-08-19T12:45:03;101400;;;25.48963;67.3
70943;BME280;59154;51.970;5.650;2022-08-19T12:50:04;101400;;;25.66257;66.9
70943;BME280;59154;51.970;5.650;2022-08-19T12:55:05;101400;;;25.7287;66.9
70943;BME280;59154;51.970;5.650;2022-08-19T13:00:06;101400;;;25.84568;66.4
70943;BME280;59154;51.970;5.650;2022-08-19T13:05:03;101400;;;25.94741;66.7
70943;BME280;59154;51.970;5.650;2022-08-19T13:10:04;101400;;;26.19157;66.2
70943;BME280;59154;51.970;5.650;2022-08-19T13:15:03;101400;;;26.2933;65.8
70943;BME280;59154;51.970;5.650;2022-08-19T13:20:03;101400;;;26.2933;66.1
70943;BME280;59154;51.970;5.650;2022-08-19T13:25:03;101400;;;25.95759;66.9
70943;BME280;59154;51.970;5.650;2022-08-19T13:30:05;101400;;;25.73378;66.8
70943;BME280;59154;51.970;5.650;2022-08-19T13:35:03;101400;;;25.53541;67.6
70943;BME280;59154;51.970;5.650;2022-08-19T13:40:05;101400;;;25.25057;68.7
70943;BME280;59154;51.970;5.650;2022-08-19T13:45:03;101400;;;24.93012;69.8
70943;BME280;59154;51.970;5.650;2022-08-19T13:50:04;101400;;;24.94538;70.2
70943;BME280;59154;51.970;5.650;2022-08-19T13:55:03;101400;;;24.93012;70.3
70943;BME280;59154;51.970;5.650;2022-08-19T14:00:05;101400;;;25.01151;70.4
70943;BME280;59154;51.970;5.650;2022-08-19T14:05:03;101400;;;25.74904;68.1
70943;BME280;59154;51.970;5.650;2022-08-19T14:10:05;101400;;;25.95759;67.8
70943;BME280;59154;51.970;5.650;2022-08-19T14:15:04;101400;;;26.11527;66.0
70943;BME280;59154;51.970;5.650;2022-08-19T14:20:05;101400;;;26.13561;66.2
70943;BME280;59154;51.970;5.650;2022-08-19T14:25:03;101400;;;25.84568;67.6
70943;BME280;59154;51.970;5.650;2022-08-19T14:30:04;101400;;;25.7287;68.1
70943;BME280;59154;51.970;5.650;2022-08-19T14:35:04;101400;;;25.37264;68.5
70943;BME280;59154;51.970;5.650;2022-08-19T14:40:03;101400;;;25.0522;69.5
70943;BME280;59154;51.970;5.650;2022-08-19T14:45:03;101400;;;24.20277;77.7
70943;BME280;59154;51.970;5.650;2022-08-19T14:50:04;101400;;;23.56189;82.6
70943;BME280;59154;51.970;5.650;2022-08-19T14:55:03;101400;;;23.51103;83.1
70943;BME280;59154;51.970;5.650;2022-08-19T15:00:04;101400;;;23.65853;82.6
70943;BME280;59154;51.970;5.650;2022-08-19T15:05:03;101400;;;23.77043;83.5
70943;BME280;59154;51.970;5.650;2022-08-19T15:10:04;101400;;;23.7806;82.3
70943;BME280;59154;51.970;5.650;2022-08-19T15:15:02;101400;;;23.81621;81.4
70943;BME280;59154;51.970;5.650;2022-08-19T15:20:05;101400;;;23.82638;82.5
70943;BME280;59154;51.970;5.650;2022-08-19T15:25:04;101400;;;23.84672;81.4
70943;BME280;59154;51.970;5.650;2022-08-19T15:30:03;101400;;;23.8925;80.5
70943;BME280;59154;51.970;5.650;2022-08-19T15:35:03;101400;;;23.92811;79.8
70943;BME280;59154;51.970;5.650;2022-08-19T15:40:05;101400;;;23.99932;80.4
70943;BME280;59154;51.970;5.650;2022-08-19T15:45:03;101400;;;24.12647;79.8
70943;BME280;59154;51.970;5.650;2022-08-19T15:50:05;101400;;;24.2282;79.7
70943;BME280;59154;51.970;5.650;2022-08-19T15:55:04;101400;;;24.35536;79.2
70943;BME280;59154;51.970;5.650;2022-08-19T16:00:04;101400;;;25.3879;76.2
70943;BME280;59154;51.970;5.650;2022-08-19T16:05:06;101400;;;26.2526;73.1
70943;BME280;59154;51.970;5.650;2022-08-19T16:10:04;101400;;;26.4408;72.2
70943;BME280;59154;51.970;5.650;2022-08-19T16:15:03;101400;;;26.07458;72.9
70943;BME280;59154;51.970;5.650;2022-08-19T16:20:05;101400;;;25.4286;74.1
70943;BME280;59154;51.970;5.650;2022-08-19T16:25:03;101400;;;24.89452;77.0
70943;BME280;59154;51.970;5.650;2022-08-19T16:30:03;101400;;;24.73684;77.8
70943;BME280;59154;51.970;5.650;2022-08-19T16:35:04;101400;;;24.55882;79.3
70943;BME280;59154;51.970;5.650;2022-08-19T16:40:04;101400;;;24.53339;79.7
70943;BME280;59154;51.970;5.650;2022-08-19T16:45:03;101400;;;24.35028;81.0
70943;BME280;59154;51.970;5.650;2022-08-19T16:50:04;101400;;;24.16717;80.8
70943;BME280;59154;51.970;5.650;2022-08-19T16:55:04;101400;;;24.1163;81.0
70943;BME280;59154;51.970;5.650;2022-08-19T17:00:04;101400;;;24.09087;81.1
70943;BME280;59154;51.970;5.650;2022-08-19T17:05:04;101400;;;24.02475;81.8
70943;BME280;59154;51.970;5.650;2022-08-19T17:10:04;101400;;;23.97897;81.6
70943;BME280;59154;51.970;5.650;2022-08-19T17:15:04;101500;;;23.92302;82.5
70943;BME280;59154;51.970;5.650;2022-08-19T17:20:04;101400;;;23.83147;82.7
70943;BME280;59154;51.970;5.650;2022-08-19T17:25:03;101500;;;23.68396;84.4
70943;BME280;59154;51.970;5.650;2022-08-19T17:30:04;101500;;;23.50594;86.2
70943;BME280;59154;51.970;5.650;2022-08-19T17:35:03;101400;;;23.48559;86.6
70943;BME280;59154;51.970;5.650;2022-08-19T17:40:06;101400;;;23.46525;86.6
70943;BME280;59154;51.970;5.650;2022-08-19T17:45:03;101400;;;23.39404;86.7
70943;BME280;59154;51.970;5.650;2022-08-19T17:50:02;101400;;;23.45508;87.6
70943;BME280;59154;51.970;5.650;2022-08-19T17:55:03;101400;;;23.43473;87.2
70943;BME280;59154;51.970;5.650;2022-08-19T18:00:04;101400;;;23.45508;86.8
70943;BME280;59154;51.970;5.650;2022-08-19T18:05:03;101400;;;23.31774;88.9
70943;BME280;59154;51.970;5.650;2022-08-19T18:10:03;101400;;;23.12955;88.9
70943;BME280;59154;51.970;5.650;2022-08-19T18:15:04;101400;;;22.98713;88.4
70943;BME280;59154;51.970;5.650;2022-08-19T18:20:04;101400;;;22.87015;88.8
70943;BME280;59154;51.970;5.650;2022-08-19T18:25:05;101500;;;22.66161;90.3
70943;BME280;59154;51.970;5.650;2022-08-19T18:30:03;101500;;;22.54971;90.9
70943;BME280;59154;51.970;5.650;2022-08-19T18:35:06;101500;;;22.42764;91.4
70943;BME280;59154;51.970;5.650;2022-08-19T18:40:04;101500;;;22.36661;90.9
70943;BME280;59154;51.970;5.650;2022-08-19T18:45:03;101500;;;22.2598;90.3
70943;BME280;59154;51.970;5.650;2022-08-19T18:50:03;101500;;;22.21911;90.7
70943;BME280;59154;51.970;5.650;2022-08-19T18:55:03;101500;;;22.14281;90.4
70943;BME280;59154;51.970;5.650;2022-08-19T19:00:04;101500;;;22.10212;90.7
70943;BME280;59154;51.970;5.650;2022-08-19T19:05:03;101500;;;21.87324;92.2
70943;BME280;59154;51.970;5.650;2022-08-19T19:10:04;101500;;;21.78677;92.7
70943;BME280;59154;51.970;5.650;2022-08-19T19:15:03;101500;;;21.67996;93.1
70943;BME280;59154;51.970;5.650;2022-08-19T19:20:04;101500;;;21.52229;93.5
70943;BME280;59154;51.970;5.650;2022-08-19T19:25:03;101500;;;21.45617;93.4
70943;BME280;59154;51.970;5.650;2022-08-19T19:30:03;101500;;;21.36462;93.1
70943;BME280;59154;51.970;5.650;2022-08-19T19:35:04;101500;;;21.33919;92.8
70943;BME280;59154;51.970;5.650;2022-08-19T19:40:03;101500;;;21.28324;92.6
70943;BME280;59154;51.970;5.650;2022-08-19T19:45:04;101500;;;21.21203;92.2
70943;BME280;59154;51.970;5.650;2022-08-19T19:50:03;101500;;;21.27815;92.3
70943;BME280;59154;51.970;5.650;2022-08-19T19:55:04;101500;;;21.29341;92.5
70943;BME280;59154;51.970;5.650;2022-08-19T20:00:04;101500;;;21.2985;92.3
70943;BME280;59154;51.970;5.650;2022-08-19T20:05:04;101500;;;21.22729;92.2
70943;BME280;59154;51.970;5.650;2022-08-19T20:10:04;101500;;;21.21203;92.5
70943;BME280;59154;51.970;5.650;2022-08-19T20:15:03;101500;;;21.13574;92.7
70943;BME280;59154;51.970;5.650;2022-08-19T20:20:04;101500;;;21.07979;92.9
70943;BME280;59154;51.970;5.650;2022-08-19T20:25:03;101500;;;20.95772;93.2
70943;BME280;59154;51.970;5.650;2022-08-19T20:30:03;101500;;;20.89669;93.6
70943;BME280;59154;51.970;5.650;2022-08-19T20:35:03;101600;;;20.79496;94.2
70943;BME280;59154;51.970;5.650;2022-08-19T20:40:05;101600;;;20.74919;94.2
70943;BME280;59154;51.970;5.650;2022-08-19T20:45:02;101600;;;20.5966;95.0
70943;BME280;59154;51.970;5.650;2022-08-19T20:50:04;101600;;;20.54065;94.8
70943;BME280;59154;51.970;5.650;2022-08-19T20:55:03;101600;;;20.49997;95.2
70943;BME280;59154;51.970;5.650;2022-08-19T21:00:05;101600;;;20.4491;95.4
70943;BME280;59154;51.970;5.650;2022-08-19T21:05:02;101600;;;20.44402;95.3
70943;BME280;59154;51.970;5.650;2022-08-19T21:10:03;101600;;;20.39316;95.4
70943;BME280;59154;51.970;5.650;2022-08-19T21:15:03;101600;;;20.47453;95.1
70943;BME280;59154;51.970;5.650;2022-08-19T21:20:04;101600;;;20.50505;95.2
70943;BME280;59154;51.970;5.650;2022-08-19T21:25:03;101600;;;20.50505;95.0
70943;BME280;59154;51.970;5.650;2022-08-19T21:30:03;101600;;;20.51522;95.1
70943;BME280;59154;51.970;5.650;2022-08-19T21:35:03;101600;;;20.49488;94.8
70943;BME280;59154;51.970;5.650;2022-08-19T21:40:04;101500;;;20.42367;95.2
70943;BME280;59154;51.970;5.650;2022-08-19T21:45:03;101500;;;20.47962;95.0
70943;BME280;59154;51.970;5.650;2022-08-19T21:50:03;101500;;;20.48979;95.1
70943;BME280;59154;51.970;5.650;2022-08-19T21:55:02;101500;;;20.51522;95.1
70943;BME280;59154;51.970;5.650;2022-08-19T22:00:07;101500;;;20.54065;95.2
70943;BME280;59154;51.970;5.650;2022-08-19T22:05:03;101600;;;20.50505;95.6
70943;BME280;59154;51.970;5.650;2022-08-19T22:10:05;101600;;;20.49997;95.6
70943;BME280;59154;51.970;5.650;2022-08-19T22:15:03;101600;;;20.48979;95.7
70943;BME280;59154;51.970;5.650;2022-08-19T22:20:04;101600;;;20.48979;95.6
70943;BME280;59154;51.970;5.650;2022-08-19T22:25:06;101600;;;20.43893;95.8
70943;BME280;59154;51.970;5.650;2022-08-19T22:30:05;101600;;;20.4135;95.9
70943;BME280;59154;51.970;5.650;2022-08-19T22:35:04;101600;;;20.41859;95.9
70943;BME280;59154;51.970;5.650;2022-08-19T22:40:04;101600;;;20.40841;96.0
70943;BME280;59154;51.970;5.650;2022-08-19T22:45:04;101600;;;20.40333;96.2
70943;BME280;59154;51.970;5.650;2022-08-19T22:50:06;101600;;;20.38298;96.4
70943;BME280;59154;51.970;5.650;2022-08-19T22:55:04;101600;;;20.38298;96.4
70943;BME280;59154;51.970;5.650;2022-08-19T23:00:06;101600;;;20.37281;96.8
70943;BME280;59154;51.970;5.650;2022-08-19T23:05:04;101600;;;20.36264;97.2
70943;BME280;59154;51.970;5.650;2022-08-19T23:10:04;101600;;;20.36772;97.1
70943;BME280;59154;51.970;5.650;2022-08-19T23:15:08;101600;;;20.34229;97.0
70943;BME280;59154;51.970;5.650;2022-08-19T23:20:04;101600;;;20.3016;97.0
70943;BME280;59154;51.970;5.650;2022-08-19T23:25:04;101600;;;20.27109;97.5
70943;BME280;59154;51.970;5.650;2022-08-19T23:30:03;101600;;;20.25583;97.8
70943;BME280;59154;51.970;5.650;2022-08-19T23:35:03;101600;;;20.25074;97.5
70943;BME280;59154;51.970;5.650;2022-08-19T23:40:05;101600;;;20.24566;97.2
70943;BME280;59154;51.970;5.650;2022-08-19T23:45:05;101600;;;20.27109;97.4
70943;BME280;59154;51.970;5.650;2022-08-19T23:50:04;101600;;;20.27109;97.4
70943;BME280;59154;51.970;5.650;2022-08-19T23:55:03;101600;;;20.25074;97.6
